Time;durP1;ratioP1;P1;durP2;ratioP2;P2;SDS_P1;SDS_P2;PMS_P1;PMS_P2;Temp;Humidity;BMP_temperature;BMP_pressure;BME280_temperature;BME280_humidity;BME280_pressure;Samples;Min_cycle;Max_cycle;Signal;HPM_P1;HPM_P2
2021/12/03 00:01:39;;;;;;;15.80;5.67;;;;;;;-145.19;100.00;57938.22;5088433;28;20036;-68
2021/12/03 00:04:05;;;;;;;14.73;5.50;;;;;;;-145.19;100.00;57938.22;5089079;28;20032;-67
2021/12/03 00:06:35;;;;;;;12.87;6.20;;;;;;;-145.19;100.00;57938.22;5089136;28;20032;-68
2021/12/03 00:09:00;;;;;;;9.82;5.18;;;;;;;-145.19;100.00;57938.22;5071444;28;20028;-67
2021/12/03 00:11:25;;;;;;;12.60;5.53;;;;;;;-145.19;100.00;57938.22;5089050;28;20121;-68
2021/12/03 00:13:51;;;;;;;10.40;6.80;;;;;;;-145.19;100.00;57938.22;5089361;28;20044;-68
2021/12/03 00:16:17;;;;;;;14.00;5.57;;;;;;;-145.19;100.00;57938.22;5088929;28;20549;-68
2021/12/03 00:18:43;;;;;;;14.93;4.77;;;;;;;-145.19;100.00;57938.22;5088646;28;20041;-68
2021/12/03 00:21:11;;;;;;;12.13;4.33;;;;;;;-145.19;100.00;57938.22;5088936;28;20040;-68
2021/12/03 00:23:38;;;;;;;13.57;4.30;;;;;;;-145.19;100.00;57938.22;5088817;28;20039;-68
2021/12/03 00:26:06;;;;;;;11.30;4.13;;;;;;;-145.19;100.00;57938.22;5088721;28;20441;-68
2021/12/03 00:28:32;;;;;;;10.35;3.90;;;;;;;-145.19;100.00;57938.22;5087713;28;20549;-68
2021/12/03 00:30:58;;;;;;;10.63;3.55;;;;;;;-145.19;100.00;57938.22;5088336;28;20044;-68
2021/12/03 00:33:25;;;;;;;9.70;3.13;;;;;;;-145.19;100.00;57938.22;5089232;28;20051;-68
2021/12/03 00:35:52;;;;;;;6.55;2.90;;;;;;;-145.19;100.00;57938.22;5088632;28;20048;-67
2021/12/03 00:38:17;;;;;;;7.80;2.88;;;;;;;-145.19;100.00;57938.22;5088093;28;20082;-67
2021/12/03 00:40:42;;;;;;;5.43;2.27;;;;;;;-145.19;100.00;57938.22;5088395;28;20036;-68
2021/12/03 00:43:08;;;;;;;12.87;2.83;;;;;;;-145.19;100.00;57938.22;5070099;28;20493;-70
2021/12/03 00:45:34;;;;;;;9.57;3.03;;;;;;;-145.19;100.00;57938.22;5088577;28;20119;-70
2021/12/03 00:48:01;;;;;;;10.07;2.47;;;;;;;-145.19;100.00;57938.22;5088749;28;20553;-69
2021/12/03 00:50:29;;;;;;;9.38;2.92;;;;;;;-145.19;100.00;57938.22;5088757;28;20431;-68
2021/12/03 00:52:56;;;;;;;8.48;3.30;;;;;;;-145.19;100.00;57938.22;5088103;28;20043;-70
2021/12/03 00:55:24;;;;;;;11.55;4.03;;;;;;;-145.19;100.00;57938.22;5088233;28;20040;-68
2021/12/03 00:57:50;;;;;;;8.63;3.70;;;;;;;-145.19;100.00;57938.22;5088179;28;20036;-69
2021/12/03 01:00:25;;;;;;;11.17;3.90;;;;;;;-145.19;100.00;57938.22;5087837;28;20465;-70
2021/12/03 01:02:52;;;;;;;11.32;4.13;;;;;;;-145.19;100.00;57938.22;5070004;28;20052;-68
2021/12/03 01:05:18;;;;;;;12.40;4.25;;;;;;;-145.19;100.00;57938.22;5088152;28;20093;-68
2021/12/03 01:07:44;;;;;;;9.53;3.97;;;;;;;-145.19;100.00;57938.22;5087941;28;20063;-67
2021/12/03 01:10:09;;;;;;;12.67;4.80;;;;;;;-145.19;100.00;57938.22;5087569;28;20788;-70
2021/12/03 01:12:37;;;;;;;10.30;4.23;;;;;;;-145.19;100.00;57938.22;5088724;28;20102;-69
2021/12/03 01:15:06;;;;;;;12.65;4.30;;;;;;;-145.19;100.00;57938.22;5087717;28;20036;-69
2021/12/03 01:17:31;;;;;;;13.10;4.47;;;;;;;-145.19;100.00;57938.22;5087788;28;20036;-69
2021/12/03 01:19:59;;;;;;;10.10;4.63;;;;;;;-145.19;100.00;57938.22;5087452;28;20091;-69
2021/12/03 01:22:24;;;;;;;16.27;4.90;;;;;;;-145.19;100.00;57938.22;5087840;28;20048;-67
2021/12/03 01:24:50;;;;;;;18.07;5.20;;;;;;;-145.19;100.00;57938.22;5087534;28;20036;-68
2021/12/03 01:27:15;;;;;;;12.83;4.97;;;;;;;-145.19;100.00;57938.22;5087540;28;20079;-70
2021/12/03 01:29:41;;;;;;;16.27;5.97;;;;;;;-145.19;100.00;57938.22;5088274;28;20036;-69
2021/12/03 01:32:06;;;;;;;13.67;6.20;;;;;;;-145.19;100.00;57938.22;5087136;28;20135;-68
2021/12/03 01:34:32;;;;;;;15.53;6.30;;;;;;;-145.19;100.00;57938.22;5087387;28;20059;-70
2021/12/03 01:36:57;;;;;;;14.97;6.73;;;;;;;-145.19;100.00;57938.22;5087510;28;20039;-68
2021/12/03 01:39:23;;;;;;;15.73;7.57;;;;;;;-145.19;100.00;57938.22;5087537;28;20147;-70
2021/12/03 01:41:48;;;;;;;22.90;8.30;;;;;;;-145.19;100.00;57938.22;5087190;28;20040;-68
2021/12/03 01:44:14;;;;;;;17.57;9.30;;;;;;;-145.19;100.00;57938.22;5087822;28;20077;-69
2021/12/03 01:46:40;;;;;;;22.92;10.63;;;;;;;-145.19;100.00;57938.22;5087402;28;20131;-67
2021/12/03 01:49:06;;;;;;;29.63;11.07;;;;;;;-145.19;100.00;57938.22;5087222;28;20032;-68
2021/12/03 01:51:31;;;;;;;20.52;11.00;;;;;;;-145.19;100.00;57938.22;5087605;28;20048;-69
2021/12/03 01:53:57;;;;;;;23.17;12.10;;;;;;;-145.19;100.00;57938.22;5087080;28;20123;-69
2021/12/03 01:56:23;;;;;;;26.10;12.40;;;;;;;-145.19;100.00;57938.22;5087460;28;20032;-69
2021/12/03 01:58:50;;;;;;;27.43;12.23;;;;;;;-145.19;100.00;57938.22;5087275;28;20036;-71
2021/12/03 02:01:21;;;;;;;25.35;13.40;;;;;;;-145.19;100.00;57938.22;5087409;28;20067;-67
2021/12/03 02:03:52;;;;;;;35.47;14.32;;;;;;;-145.19;100.00;57938.22;5087102;28;20036;-69
2021/12/03 02:06:19;;;;;;;23.23;12.85;;;;;;;-145.19;100.00;57938.22;5087108;28;20036;-69
2021/12/03 02:08:44;;;;;;;29.02;13.88;;;;;;;-145.19;100.00;57938.22;5087141;28;20044;-69
2021/12/03 02:11:12;;;;;;;25.63;13.60;;;;;;;-145.19;100.00;57938.22;5086749;28;20719;-69
2021/12/03 02:13:38;;;;;;;24.80;12.48;;;;;;;-145.19;100.00;57938.22;5087030;28;20055;-67
2021/12/03 02:16:06;;;;;;;27.23;12.48;;;;;;;-145.19;100.00;57938.22;5086741;28;20039;-67
2021/12/03 02:18:31;;;;;;;24.67;12.05;;;;;;;-145.19;100.00;57938.22;5086739;28;20077;-67
2021/12/03 02:20:59;;;;;;;24.70;11.80;;;;;;;-145.19;100.00;57938.22;5086334;28;20028;-68
2021/12/03 02:23:26;;;;;;;23.00;12.05;;;;;;;-145.19;100.00;57938.22;5087392;28;20036;-66
2021/12/03 02:25:52;;;;;;;24.83;11.77;;;;;;;-145.19;100.00;57938.22;5086936;28;20039;-67
2021/12/03 02:28:20;;;;;;;27.80;10.93;;;;;;;-145.19;100.00;57938.22;5086139;28;20503;-67
2021/12/03 02:30:47;;;;;;;22.17;12.35;;;;;;;-145.19;100.00;57938.22;5086486;28;20523;-67
2021/12/03 02:33:12;;;;;;;22.23;11.75;;;;;;;-145.19;100.00;57938.22;5086091;28;20052;-67
2021/12/03 02:35:40;;;;;;;21.40;12.63;;;;;;;-145.19;100.00;57938.22;5086328;28;20054;-67
2021/12/03 02:38:07;;;;;;;26.58;12.88;;;;;;;-145.19;100.00;57938.22;5085928;28;20043;-67
2021/12/03 02:40:33;;;;;;;21.73;13.23;;;;;;;-145.19;100.00;57938.22;5086477;28;20159;-68
2021/12/03 02:42:59;;;;;;;30.50;14.67;;;;;;;-145.19;100.00;57938.22;5086653;28;20123;-67
2021/12/03 02:45:24;;;;;;;30.33;14.77;;;;;;;-145.19;100.00;57938.22;5086797;28;20505;-69
2021/12/03 02:47:50;;;;;;;35.33;15.93;;;;;;;-145.19;100.00;57938.22;5086620;28;20040;-67
2021/12/03 02:50:17;;;;;;;33.53;16.17;;;;;;;-145.19;100.00;57938.22;5085961;28;20036;-67
2021/12/03 02:52:44;;;;;;;32.45;16.20;;;;;;;-145.19;100.00;57938.22;5088133;28;20417;-67
2021/12/03 02:55:09;;;;;;;31.42;18.58;;;;;;;-145.19;100.00;57938.22;5090206;28;20044;-68
2021/12/03 02:57:35;;;;;;;34.40;17.07;;;;;;;-145.19;100.00;57938.22;5091235;28;20032;-69
2021/12/03 03:00:01;;;;;;;41.23;16.90;;;;;;;-145.19;100.00;57938.22;5090413;28;20554;-69
2021/12/03 03:02:26;;;;;;;33.70;16.60;;;;;;;-145.19;100.00;57938.22;5090449;28;20528;-69
2021/12/03 03:04:52;;;;;;;34.43;17.30;;;;;;;-145.19;100.00;57938.22;5090527;28;20028;-69
2021/12/03 03:07:18;;;;;;;36.47;17.08;;;;;;;-145.19;100.00;57938.22;5090013;28;20082;-69
2021/12/03 03:09:45;;;;;;;36.13;17.33;;;;;;;-145.19;100.00;57938.22;5090232;28;20101;-69
2021/12/03 03:12:12;;;;;;;34.42;18.70;;;;;;;-145.19;100.00;57938.22;5090051;28;20048;-70
2021/12/03 03:14:47;;;;;;;37.33;18.88;;;;;;;-145.19;100.00;57938.22;5090891;28;20431;-69
2021/12/03 03:17:13;;;;;;;30.10;15.02;;;;;;;-145.19;100.00;57938.22;5090354;28;20055;-69
2021/12/03 03:19:38;;;;;;;38.20;19.58;;;;;;;-145.19;100.00;57938.22;5090125;28;20036;-68
2021/12/03 03:22:04;;;;;;;40.63;19.37;;;;;;;-145.19;100.00;57938.22;5089661;28;20558;-69
2021/12/03 03:24:30;;;;;;;36.83;20.00;;;;;;;-145.19;100.00;57938.22;5089961;28;20032;-69
2021/12/03 03:26:55;;;;;;;40.30;19.50;;;;;;;-145.19;100.00;57938.22;5089808;28;20048;-69
2021/12/03 03:29:21;;;;;;;39.33;20.70;;;;;;;-145.19;100.00;57938.22;5067933;28;20452;-70
2021/12/03 03:31:47;;;;;;;38.50;20.93;;;;;;;-145.19;100.00;57938.22;5053431;28;20056;-69
2021/12/03 03:34:12;;;;;;;39.63;20.70;;;;;;;-145.19;100.00;57938.22;5069467;28;20045;-67
2021/12/03 03:36:42;;;;;;;37.37;21.97;;;;;;;-145.19;100.00;57938.22;5069807;28;20484;-69
2021/12/03 03:39:09;;;;;;;43.10;22.02;;;;;;;-145.19;100.00;57938.22;5069061;28;20048;-69
2021/12/03 03:41:35;;;;;;;48.03;23.67;;;;;;;-145.19;100.00;57938.22;5069668;28;20059;-69
2021/12/03 03:44:01;;;;;;;36.87;20.03;;;;;;;-145.19;100.00;57938.22;5069484;28;20048;-69
2021/12/03 03:46:26;;;;;;;44.87;22.50;;;;;;;-145.19;100.00;57938.22;5069470;28;20041;-68
2021/12/03 03:48:52;;;;;;;45.57;22.13;;;;;;;-145.19;100.00;57938.22;5070086;28;20039;-69
2021/12/03 03:51:19;;;;;;;42.90;21.57;;;;;;;-145.19;100.00;57938.22;5069334;28;20060;-69
2021/12/03 03:53:44;;;;;;;39.17;21.17;;;;;;;-145.19;100.00;57938.22;5069275;28;20043;-69
2021/12/03 03:56:10;;;;;;;41.23;21.43;;;;;;;-145.19;100.00;57938.22;5069111;28;20119;-69
2021/12/03 03:58:41;;;;;;;40.03;21.90;;;;;;;-145.19;100.00;57938.22;5069175;28;20064;-69
2021/12/03 04:01:08;;;;;;;41.13;22.20;;;;;;;-145.19;100.00;57938.22;5068814;28;20036;-69
2021/12/03 04:03:33;;;;;;;35.35;21.08;;;;;;;-145.19;100.00;57938.22;5069300;28;20060;-68
2021/12/03 04:05:59;;;;;;;43.27;21.07;;;;;;;-145.19;100.00;57938.22;5069720;28;20051;-68
2021/12/03 04:08:28;;;;;;;42.43;21.27;;;;;;;-145.19;100.00;57938.22;5069208;28;20493;-67
2021/12/03 04:10:54;;;;;;;27.95;14.90;;;;;;;-145.19;100.00;57938.22;5069143;28;20043;-68
2021/12/03 04:13:20;;;;;;;36.20;17.20;;;;;;;-145.19;100.00;57938.22;5068828;28;20409;-68
2021/12/03 04:15:45;;;;;;;33.90;16.07;;;;;;;-145.19;100.00;57938.22;5069079;28;20339;-67
2021/12/03 04:18:11;;;;;;;34.07;15.57;;;;;;;-145.19;100.00;57938.22;5068723;28;20045;-68
2021/12/03 04:20:37;;;;;;;31.70;15.13;;;;;;;-145.19;100.00;57938.22;5068909;28;20036;-68
2021/12/03 04:23:03;;;;;;;27.75;16.20;;;;;;;-145.19;100.00;57938.22;5069195;28;20037;-68
2021/12/03 04:25:28;;;;;;;29.57;14.43;;;;;;;-145.19;100.00;57938.22;5050435;28;20036;-67
2021/12/03 04:27:54;;;;;;;27.90;13.97;;;;;;;-145.19;100.00;57938.22;5069016;28;20060;-68
2021/12/03 04:30:25;;;;;;;27.57;14.23;;;;;;;-145.19;100.00;57938.22;5068616;28;20033;-68
2021/12/03 04:32:51;;;;;;;35.50;14.60;;;;;;;-145.19;100.00;57938.22;5068347;28;20093;-68
2021/12/03 04:35:17;;;;;;;29.27;15.95;;;;;;;-145.19;100.00;57938.22;5068046;28;20457;-68
2021/12/03 04:37:43;;;;;;;27.97;14.60;;;;;;;-145.19;100.00;57938.22;5068451;28;20063;-68
2021/12/03 04:40:11;;;;;;;45.40;18.48;;;;;;;-145.19;100.00;57938.22;5068308;28;20036;-68
2021/12/03 04:42:37;;;;;;;27.73;15.60;;;;;;;-145.19;100.00;57938.22;5068885;28;20105;-67
2021/12/03 04:45:05;;;;;;;32.58;15.98;;;;;;;-145.19;100.00;57938.22;5067988;28;20513;-68
2021/12/03 04:47:31;;;;;;;34.00;16.60;;;;;;;-145.19;100.00;57938.22;5068335;28;20047;-68
2021/12/03 04:49:56;;;;;;;34.17;16.57;;;;;;;-145.19;100.00;57938.22;5068109;28;20111;-68
2021/12/03 04:52:22;;;;;;;32.90;15.97;;;;;;;-145.19;100.00;57938.22;5068480;28;20253;-68
2021/12/03 04:54:47;;;;;;;44.00;16.97;;;;;;;-145.19;100.00;57938.22;5067843;28;20024;-68
2021/12/03 04:57:13;;;;;;;41.83;15.67;;;;;;;-145.19;100.00;57938.22;5067589;28;20186;-68
2021/12/03 04:59:38;;;;;;;33.73;15.07;;;;;;;-145.19;100.00;57938.22;5067835;28;20491;-67
2021/12/03 05:02:04;;;;;;;37.97;15.03;;;;;;;-145.19;100.00;57938.22;5067020;28;20051;-67
2021/12/03 05:04:36;;;;;;;39.87;14.77;;;;;;;-145.19;100.00;57938.22;5077318;28;20055;-68
2021/12/03 05:09:33;;;;;;;33.70;14.52;;;;;;;-145.19;100.00;57938.22;5070866;28;20082;-68
2021/12/03 05:11:59;;;;;;;40.50;14.73;;;;;;;-145.19;100.00;57938.22;5078319;28;20111;-68
2021/12/03 05:14:25;;;;;;;40.03;15.93;;;;;;;-145.19;100.00;57938.22;5086934;28;20040;-68
2021/12/03 05:16:50;;;;;;;35.37;15.67;;;;;;;-145.19;100.00;57938.22;5085514;28;20040;-68
2021/12/03 05:19:16;;;;;;;34.97;14.90;;;;;;;-145.19;100.00;57938.22;5080371;28;20042;-68
2021/12/03 05:21:43;;;;;;;35.13;14.40;;;;;;;-145.19;100.00;57938.22;5070627;28;20488;-67
2021/12/03 05:24:09;;;;;;;40.65;14.57;;;;;;;-145.19;100.00;57938.22;5087554;28;20048;-68
2021/12/03 05:26:37;;;;;;;47.17;12.40;;;;;;;-145.19;100.00;57938.22;5088154;28;20044;-68
2021/12/03 05:29:04;;;;;;;48.13;14.57;;;;;;;-145.19;100.00;57938.22;5087220;28;20032;-68
2021/12/03 05:31:29;;;;;;;51.28;15.90;;;;;;;-145.19;100.00;57938.22;5087953;28;20034;-68
2021/12/03 05:33:55;;;;;;;31.10;12.13;;;;;;;-145.19;100.00;57938.22;5107625;28;20044;-68
2021/12/03 05:36:20;;;;;;;47.93;13.97;;;;;;;-145.19;100.00;57938.22;5108637;28;20123;-68
2021/12/03 05:38:46;;;;;;;53.57;15.23;;;;;;;-145.19;100.00;57938.22;5107853;28;20047;-68
2021/12/03 05:41:11;;;;;;;38.43;12.53;;;;;;;-145.19;100.00;57938.22;5107461;28;21778;-68
2021/12/03 05:43:36;;;;;;;33.33;10.23;;;;;;;-145.19;100.00;57938.22;5089219;28;20584;-68
2021/12/03 05:46:02;;;;;;;37.27;13.00;;;;;;;-145.19;100.00;57938.22;5107856;28;20039;-68
2021/12/03 05:48:27;;;;;;;51.13;13.00;;;;;;;-145.19;100.00;57938.22;5103595;28;20093;-68
2021/12/03 05:50:53;;;;;;;52.53;13.77;;;;;;;-145.19;100.00;57938.22;5087936;28;20040;-68
2021/12/03 05:53:18;;;;;;;46.77;14.70;;;;;;;-145.19;100.00;57938.22;5087155;28;20047;-68
2021/12/03 05:55:44;;;;;;;41.73;15.03;;;;;;;-145.19;100.00;57938.22;5087263;28;20036;-68
2021/12/03 05:58:09;;;;;;;41.73;11.53;;;;;;;-145.19;100.00;57938.22;5085940;28;20527;-67
2021/12/03 06:00:40;;;;;;;50.50;15.20;;;;;;;-145.19;100.00;57938.22;5088946;28;20063;-67
2021/12/03 06:03:05;;;;;;;48.67;12.70;;;;;;;-145.19;100.00;57938.22;5086445;28;20040;-68
2021/12/03 06:05:32;;;;;;;47.57;12.50;;;;;;;-145.19;100.00;57938.22;5086763;28;20347;-68
2021/12/03 06:07:58;;;;;;;46.30;14.40;;;;;;;-145.19;100.00;57938.22;5087563;28;20070;-68
2021/12/03 06:10:25;;;;;;;40.83;14.87;;;;;;;-145.19;100.00;57938.22;5087006;28;20265;-68
2021/12/03 06:12:51;;;;;;;32.95;9.77;;;;;;;-145.19;100.00;57938.22;5086917;28;20069;-68
2021/12/03 06:15:18;;;;;;;43.00;12.83;;;;;;;-145.19;100.00;57938.22;5086500;28;20628;-68
2021/12/03 06:17:44;;;;;;;34.60;12.17;;;;;;;-145.19;100.00;57938.22;5068764;28;20032;-67
2021/12/03 06:20:10;;;;;;;27.97;9.13;;;;;;;-145.19;100.00;57938.22;5086187;28;20273;-69
2021/12/03 06:22:36;;;;;;;28.67;9.33;;;;;;;-145.19;100.00;57938.22;5087758;28;20040;-69
2021/12/03 06:25:02;;;;;;;43.83;11.33;;;;;;;-145.19;100.00;57938.22;5086234;28;20494;-68
2021/12/03 06:27:29;;;;;;;40.77;10.50;;;;;;;-145.19;100.00;57938.22;5067817;28;20051;-68
2021/12/03 06:29:56;;;;;;;27.03;8.63;;;;;;;-145.19;100.00;57938.22;5086149;28;20772;-68
2021/12/03 06:32:22;;;;;;;30.83;9.38;;;;;;;-145.19;100.00;57938.22;5086623;28;20284;-68
2021/12/03 06:34:47;;;;;;;25.40;8.50;;;;;;;-145.19;100.00;57938.22;5086763;28;20035;-68
2021/12/03 06:37:13;;;;;;;25.97;7.73;;;;;;;-145.19;100.00;57938.22;5086449;28;20036;-69
2021/12/03 06:39:38;;;;;;;26.70;7.60;;;;;;;-145.19;100.00;57938.22;5035524;28;20066;-68
2021/12/03 06:42:04;;;;;;;18.40;7.57;;;;;;;-145.19;100.00;57938.22;5086350;28;20032;-68
2021/12/03 06:44:31;;;;;;;19.30;6.50;;;;;;;-145.19;100.00;57938.22;5085622;28;20032;-68
2021/12/03 06:46:56;;;;;;;18.57;6.53;;;;;;;-145.19;100.00;57938.22;5086183;28;20519;-68
2021/12/03 06:49:22;;;;;;;31.03;7.00;;;;;;;-145.19;100.00;57938.22;5085745;28;20280;-68
2021/12/03 06:51:50;;;;;;;17.33;4.90;;;;;;;-145.19;100.00;57938.22;5084564;28;20508;-68
2021/12/03 06:54:24;;;;;;;18.40;5.47;;;;;;;-145.19;100.00;57938.22;5085321;28;20641;-68
2021/12/03 06:56:52;;;;;;;12.73;4.30;;;;;;;-145.19;100.00;57938.22;5084164;28;20085;-68
2021/12/03 06:59:19;;;;;;;17.27;5.53;;;;;;;-145.19;100.00;57938.22;5083677;28;20281;-68
2021/12/03 07:01:45;;;;;;;17.80;5.28;;;;;;;-145.19;100.00;57938.22;5085777;28;20036;-68
2021/12/03 07:04:11;;;;;;;17.23;5.73;;;;;;;-145.19;100.00;57938.22;5084976;28;20051;-68
2021/12/03 07:06:37;;;;;;;25.35;7.68;;;;;;;-145.19;100.00;57938.22;5085229;28;20638;-68
2021/12/03 07:09:04;;;;;;;18.07;6.00;;;;;;;-145.19;100.00;57938.22;5066265;28;20119;-68
2021/12/03 07:11:29;;;;;;;19.10;6.18;;;;;;;-145.19;100.00;57938.22;5085238;28;20047;-69
2021/12/03 07:13:55;;;;;;;16.50;6.70;;;;;;;-145.19;100.00;57938.22;5049406;28;20028;-68
2021/12/03 07:16:20;;;;;;;25.27;7.40;;;;;;;-145.19;100.00;57938.22;5083912;28;20040;-69
2021/12/03 07:18:45;;;;;;;23.03;7.10;;;;;;;-145.19;100.00;57938.22;5084540;28;20138;-68
2021/12/03 07:21:11;;;;;;;32.30;6.17;;;;;;;-145.19;100.00;57938.22;5084326;28;20115;-68
2021/12/03 07:23:37;;;;;;;23.10;7.60;;;;;;;-145.19;100.00;57938.22;5085375;28;20063;-68
2021/12/03 07:26:03;;;;;;;26.03;6.93;;;;;;;-145.19;100.00;57938.22;5084949;28;20334;-68
2021/12/03 07:28:30;;;;;;;30.47;7.27;;;;;;;-145.19;100.00;57938.22;5085334;28;20089;-68
2021/12/03 07:30:56;;;;;;;40.38;10.07;;;;;;;-145.19;100.00;57938.22;5084781;28;20092;-69
2021/12/03 07:33:21;;;;;;;39.00;7.93;;;;;;;-145.19;100.00;57938.22;5085105;28;20040;-68
2021/12/03 07:35:47;;;;;;;31.53;8.57;;;;;;;-145.19;100.00;57938.22;5084519;28;20051;-68
2021/12/03 07:38:15;;;;;;;29.47;8.67;;;;;;;-145.19;100.00;57938.22;5085095;28;20201;-68
2021/12/03 07:40:42;;;;;;;31.40;6.13;;;;;;;-145.19;100.00;57938.22;5088344;28;20518;-68
2021/12/03 07:43:08;;;;;;;30.55;7.85;;;;;;;-145.19;100.00;57938.22;5087548;28;20304;-68
2021/12/03 07:45:34;;;;;;;29.20;7.22;;;;;;;-145.19;100.00;57938.22;5088398;28;20043;-68
2021/12/03 07:47:59;;;;;;;35.73;8.40;;;;;;;-145.19;100.00;57938.22;5078949;28;20048;-68
2021/12/03 07:50:24;;;;;;;43.13;8.80;;;;;;;-145.19;100.00;57938.22;5088956;28;20043;-68
2021/12/03 07:52:50;;;;;;;32.70;6.47;;;;;;;-145.19;100.00;57938.22;5067857;28;20041;-68
2021/12/03 07:55:15;;;;;;;37.63;9.80;;;;;;;-145.19;100.00;57938.22;5068134;28;20076;-68
2021/12/03 07:57:40;;;;;;;38.20;8.47;;;;;;;-145.19;100.00;57938.22;5083082;28;20520;-68
2021/12/03 08:00:08;;;;;;;30.67;8.40;;;;;;;-145.19;100.00;57938.22;5068300;28;20052;-68
2021/12/03 08:02:33;;;;;;;29.75;7.68;;;;;;;-145.19;100.00;57938.22;5068003;28;20041;-68
2021/12/03 08:04:58;;;;;;;24.87;6.57;;;;;;;-145.19;100.00;57938.22;5077052;28;20042;-68
2021/12/03 08:07:24;;;;;;;39.20;7.33;;;;;;;-145.19;100.00;57938.22;5070014;28;20070;-68
2021/12/03 08:09:50;;;;;;;31.63;7.40;;;;;;;-145.19;100.00;57938.22;5081260;28;20121;-68
2021/12/03 08:12:15;;;;;;;26.67;5.33;;;;;;;-145.19;100.00;57938.22;5083162;28;20044;-67
2021/12/03 08:14:41;;;;;;;32.93;7.33;;;;;;;-145.19;100.00;57938.22;5085295;28;20181;-68
2021/12/03 08:17:06;;;;;;;27.57;6.77;;;;;;;-145.19;100.00;57938.22;5082626;28;20048;-67
2021/12/03 08:19:32;;;;;;;37.27;7.27;;;;;;;-145.19;100.00;57938.22;5076029;28;20048;-67
2021/12/03 08:21:57;;;;;;;23.00;6.60;;;;;;;-145.19;100.00;57938.22;5079101;28;20040;-68
2021/12/03 08:24:22;;;;;;;24.00;5.47;;;;;;;-145.19;100.00;57938.22;5076214;28;20036;-69
2021/12/03 08:26:48;;;;;;;17.40;4.33;;;;;;;-145.19;100.00;57938.22;5082448;28;20044;-67
2021/12/03 08:29:13;;;;;;;27.63;4.57;;;;;;;-145.19;100.00;57938.22;5085136;28;20048;-67
2021/12/03 08:31:40;;;;;;;18.10;5.27;;;;;;;-145.19;100.00;57938.22;5081525;28;20062;-68
2021/12/03 08:34:06;;;;;;;20.70;5.22;;;;;;;-145.19;100.00;57938.22;5069281;28;20036;-69
2021/12/03 08:36:31;;;;;;;21.23;5.00;;;;;;;-145.19;100.00;57938.22;5067429;28;20044;-67
2021/12/03 08:38:57;;;;;;;19.53;4.17;;;;;;;-145.19;100.00;57938.22;5071521;28;20265;-69
2021/12/03 08:41:23;;;;;;;18.90;5.20;;;;;;;-145.19;100.00;57938.22;5071560;28;20400;-69
2021/12/03 08:43:49;;;;;;;16.60;4.43;;;;;;;-145.19;100.00;57938.22;5071732;28;20037;-67
2021/12/03 08:46:26;;;;;;;25.83;4.70;;;;;;;-145.19;100.00;57938.22;5067970;28;20049;-69
2021/12/03 08:48:52;;;;;;;19.43;4.60;;;;;;;-145.19;100.00;57938.22;5064042;28;20288;-67
2021/12/03 08:56:30;;;;;;;18.80;4.83;;;;;;;-145.19;100.00;57938.22;5068661;28;20641;-67
2021/12/03 08:58:56;;;;;;;22.27;4.70;;;;;;;-145.19;100.00;57938.22;5068060;28;20269;-69
2021/12/03 09:01:22;;;;;;;23.57;4.63;;;;;;;-145.19;100.00;57938.22;5062458;28;20048;-67
2021/12/03 09:03:48;;;;;;;13.33;3.67;;;;;;;-145.19;100.00;57938.22;5069228;28;20098;-67
2021/12/03 09:06:13;;;;;;;21.13;4.40;;;;;;;-145.19;100.00;57938.22;5066963;28;20083;-67
2021/12/03 09:08:38;;;;;;;19.67;3.77;;;;;;;-145.19;100.00;57938.22;5069284;28;20314;-67
2021/12/03 09:11:05;;;;;;;14.73;3.07;;;;;;;-145.19;100.00;57938.22;5068699;28;20044;-67
2021/12/03 09:13:31;;;;;;;26.07;5.33;;;;;;;-145.19;100.00;57938.22;5069098;28;20032;-69
2021/12/03 09:16:01;;;;;;;17.37;4.07;;;;;;;-145.19;100.00;57938.22;5066696;28;20279;-67
2021/12/03 09:18:30;;;;;;;17.03;4.27;;;;;;;-145.19;100.00;57938.22;5065930;28;20040;-67
2021/12/03 09:21:02;;;;;;;14.63;3.97;;;;;;;-145.19;100.00;57938.22;5065700;28;20798;-68
2021/12/03 09:23:35;;;;;;;11.43;3.33;;;;;;;-145.19;100.00;57938.22;5074532;28;20281;-67
2021/12/03 09:26:08;;;;;;;15.90;4.10;;;;;;;-145.19;100.00;57938.22;5067502;28;20819;-67
2021/12/03 09:28:36;;;;;;;24.93;3.53;;;;;;;-145.19;100.00;57938.22;5066845;28;20323;-67
2021/12/03 09:31:03;;;;;;;29.77;4.70;;;;;;;-145.19;100.00;57938.22;5060653;28;20291;-67
2021/12/03 09:33:31;;;;;;;15.07;2.97;;;;;;;-145.19;100.00;57938.22;5068033;28;20664;-70
2021/12/03 09:36:01;;;;;;;12.40;3.77;;;;;;;-145.19;100.00;57938.22;5065651;28;20272;-67
2021/12/03 09:38:30;;;;;;;24.33;3.60;;;;;;;-145.19;100.00;57938.22;5068494;28;21096;-69
2021/12/03 09:41:00;;;;;;;16.47;3.90;;;;;;;-145.19;100.00;57938.22;5064951;28;20304;-70
2021/12/03 09:43:25;;;;;;;19.10;4.70;;;;;;;-145.19;100.00;57938.22;5064802;28;20303;-70
2021/12/03 09:46:03;;;;;;;15.87;3.80;;;;;;;-145.19;100.00;57938.22;5068831;28;20277;-69
2021/12/03 09:48:40;;;;;;;15.90;3.37;;;;;;;-145.19;100.00;57938.22;5066175;28;20048;-68
2021/12/03 09:51:06;;;;;;;23.93;4.47;;;;;;;-145.19;100.00;57938.22;5065005;28;20293;-70
2021/12/03 09:56:15;;;;;;;14.20;3.37;;;;;;;-145.19;100.00;57938.22;5061074;28;20487;-69
2021/12/03 10:01:35;;;;;;;15.43;3.93;;;;;;;-145.19;100.00;57938.22;5066460;28;20516;-69
2021/12/03 10:04:54;;;;;;;21.58;4.03;;;;;;;-145.19;100.00;57938.22;5066269;28;20292;-69
2021/12/03 10:10:14;;;;;;;20.93;4.67;;;;;;;-145.19;100.00;57938.22;5066367;28;20071;-69
2021/12/03 10:12:56;;;;;;;13.93;4.47;;;;;;;-145.19;100.00;57938.22;5062788;28;20273;-70
2021/12/03 10:18:17;;;;;;;16.57;4.20;;;;;;;-145.19;100.00;57938.22;5066213;28;20289;-68
2021/12/03 10:39:20;;;;;;;18.60;5.70;;;;;;;-145.19;100.00;57938.22;5070149;28;20047;-70
2021/12/03 10:47:36;;;;;;;10.50;3.13;;;;;;;-145.19;100.00;57938.22;5066801;28;20301;-70
2021/12/03 11:41:22;;;;;;;10.67;3.40;;;;;;;-145.19;100.00;57938.22;5044966;28;20284;-69
2021/12/03 12:24:06;;;;;;;13.07;3.00;;;;;;;-145.19;100.00;57938.22;5088514;28;20716;-69
2021/12/03 12:26:37;;;;;;;10.60;3.03;;;;;;;-145.19;100.00;57938.22;5083018;28;20249;-69
2021/12/03 12:29:53;;;;;;;6.20;2.50;;;;;;;-145.19;100.00;57938.22;5088287;28;20756;-68
2021/12/03 14:00:21;;;;;;;10.60;4.93;;;;;;;-145.19;100.00;57938.22;5086442;28;20263;-68
2021/12/03 14:55:44;;;;;;;11.43;9.03;;;;;;;-145.19;100.00;57938.22;5085292;28;20280;-68
2021/12/03 14:58:32;;;;;;;14.77;10.17;;;;;;;-145.19;100.00;57938.22;5084918;28;20044;-68
2021/12/03 15:01:03;;;;;;;16.90;9.70;;;;;;;-145.19;100.00;57938.22;5083973;28;20756;-68
2021/12/03 15:09:37;;;;;;;12.07;9.80;;;;;;;-145.19;100.00;57938.22;5085634;28;20269;-68
2021/12/03 15:27:47;;;;;;;15.63;10.57;;;;;;;-145.19;100.00;57938.22;5086187;28;20412;-68
2021/12/03 15:36:17;;;;;;;19.67;12.17;;;;;;;-145.19;100.00;57938.22;5083650;28;20153;-68
2021/12/03 15:55:14;;;;;;;14.70;12.23;;;;;;;-145.19;100.00;57938.22;5087015;28;20826;-67
2021/12/03 16:08:19;;;;;;;14.83;11.63;;;;;;;-145.19;100.00;57938.22;5087293;28;20276;-67
2021/12/03 16:26:58;;;;;;;18.37;14.13;;;;;;;-145.19;100.00;57938.22;5088558;28;20820;-67
2021/12/03 16:52:51;;;;;;;24.87;20.07;;;;;;;-145.19;100.00;57938.22;5086457;28;20048;-67
2021/12/03 16:55:18;;;;;;;31.13;23.40;;;;;;;-145.19;100.00;57938.22;5069468;28;20269;-68
2021/12/03 16:57:47;;;;;;;23.90;15.87;;;;;;;-145.19;100.00;57938.22;5087847;28;20691;-67
2021/12/03 17:00:23;;;;;;;32.93;21.07;;;;;;;-145.19;100.00;57938.22;5087698;28;20298;-68
2021/12/03 17:05:46;;;;;;;35.53;20.13;;;;;;;-145.19;100.00;57938.22;5087695;28;20705;-67
2021/12/03 17:28:15;;;;;;;18.40;14.47;;;;;;;-145.19;100.00;57938.22;5046350;28;20288;-67
2021/12/03 17:49:20;;;;;;;50.93;23.50;;;;;;;-145.19;100.00;57938.22;5087243;28;20345;-68
2021/12/03 17:51:44;;;;;;;19.00;14.43;;;;;;;-145.19;100.00;57938.22;5078654;28;20273;-68